Pagina principale
METAR-TAF:

METAR-TAF

Aeroporti :

Aeroporto di Brescia-Ghedi

Brescia Ghedi, Italia

latitudine: 45-25N, longitudine: 010-17E, altezza: 102 m

Osservazione

Il bollettino è stato emesso 43 minuti fa, alle 02:55 UTC
Vento 3 kt da nord/nord-est
Temperature 5°C
Umidità 100%
Pressione 1021 hPa
Visibilità: 8000 m

METAR: LIPL 270255Z 03003KT 8000 NSC 05/05 Q1021 RMK SKC VIS MIN 8000 WIND THR31 02002KT WIND THR13 08002KT BLU

Ora: 04:38 (03:38 UTC)

Previsione

Il bollettino è stato emesso 1 ora e 38 minuti fa, alle 02:00 UTC
Previsione valida dal 27 alle 03 UTC al 27 alle 12 UTC
Vento 3 kt da direzioni variabili
Visibilità 10 km o più
nessuna nube inferiore a 1500 m e nessun cumulonembo
Temporaneamente
dal 27 alle 03 UTC al 27 alle 06 UTC
Visibilità: 5000 m
foschia

TAF: LIPL 270200Z 2703/2712 VRB03KT CAVOK TEMPO 2703/2706 5000 BR NSC

Osservazioni e previsioni meteorologiche di più di 4000 aeroporti (messaggi METAR e TAF).

Le stazioni disponibili sono rappresentate dai dischi gialli e rossi sulla carta.

Puntare il mouse per vedere il nome della stazione.

Clicca sopra per visualizzare le osservazioni e previsioni meteorologiche.

Per cambiare la mappa : fare clic sui pulsanti verdi con una croce nera per ingrandire, il pulsante verde con un trattino per diminuire, o sulla freccia verde per le mappe adiacenti.


METAR-TAF: